createdAt,value
2022-08-18T00:00:49.985Z,23.15
2022-08-18T00:03:57.286Z,23.01
2022-08-18T00:07:10.809Z,23.00
2022-08-18T00:10:18.185Z,23.00
2022-08-18T00:13:20.352Z,23.04
2022-08-18T00:16:21.834Z,23.03
2022-08-18T00:19:45.491Z,22.96
2022-08-18T00:22:46.584Z,22.94
2022-08-18T00:25:50.187Z,22.99
2022-08-18T00:28:51.605Z,23.02
2022-08-18T00:31:53.295Z,23.01
2022-08-18T00:34:54.978Z,23.04
2022-08-18T00:37:58.466Z,23.10
2022-08-18T00:40:59.937Z,23.14
2022-08-18T00:44:04.463Z,23.11
2022-08-18T00:47:06.030Z,23.04
2022-08-18T00:50:08.036Z,23.05
2022-08-18T00:53:29.381Z,23.00
2022-08-18T00:56:35.568Z,22.96
2022-08-18T00:59:42.857Z,22.85
2022-08-18T01:02:50.512Z,22.73
2022-08-18T01:06:03.416Z,22.65
2022-08-18T01:09:05.867Z,22.63
2022-08-18T01:12:44.313Z,22.61
2022-08-18T01:15:31.561Z,22.65
2022-08-18T01:18:51.591Z,22.77
2022-08-18T01:22:00.868Z,22.81
2022-08-18T01:25:26.302Z,22.72
2022-08-18T01:28:29.342Z,22.65
2022-08-18T01:31:37.545Z,22.62
2022-08-18T01:34:39.100Z,22.48
2022-08-18T01:37:41.309Z,22.52
2022-08-18T01:41:06.262Z,22.64
2022-08-18T01:44:05.145Z,22.60
2022-08-18T01:47:06.593Z,22.57
2022-08-18T01:50:11.086Z,22.50
2022-08-18T01:53:12.554Z,22.52
2022-08-18T01:56:17.551Z,22.42
2022-08-18T01:59:19.064Z,22.48
2022-08-18T02:02:26.029Z,22.49
2022-08-18T02:05:33.531Z,22.43
2022-08-18T02:08:35.483Z,22.38
2022-08-18T02:11:36.911Z,22.35
2022-08-18T02:14:40.434Z,22.33
2022-08-18T02:17:44.637Z,22.32
2022-08-18T02:20:47.897Z,22.37
2022-08-18T02:23:53.242Z,22.40
2022-08-18T02:26:55.537Z,22.41
2022-08-18T02:29:59.813Z,22.47
2022-08-18T02:33:01.725Z,22.42
2022-08-18T02:36:04.218Z,22.36
2022-08-18T02:39:05.628Z,22.33
2022-08-18T02:42:07.702Z,22.34
2022-08-18T02:45:09.739Z,22.33
2022-08-18T02:48:11.226Z,22.33
2022-08-18T02:51:16.786Z,22.36
2022-08-18T02:54:20.530Z,22.37
2022-08-18T02:57:22.478Z,22.26
2022-08-18T03:00:23.900Z,22.20
2022-08-18T03:03:25.354Z,22.19
2022-08-18T03:06:28.449Z,22.24
2022-08-18T03:09:31.804Z,22.20
2022-08-18T03:12:33.213Z,22.22
2022-08-18T03:15:34.695Z,22.22
2022-08-18T03:18:36.716Z,22.04
2022-08-18T03:21:38.171Z,21.97
2022-08-18T03:24:39.747Z,21.91
2022-08-18T03:27:41.154Z,21.96
2022-08-18T03:30:43.419Z,21.91
2022-08-18T03:33:46.455Z,21.84
2022-08-18T03:36:50.486Z,21.71
2022-08-18T03:39:52.753Z,21.72
2022-08-18T03:42:54.227Z,21.75
2022-08-18T03:45:55.629Z,21.66
2022-08-18T03:48:58.903Z,21.72
2022-08-18T03:52:00.770Z,21.71
2022-08-18T03:55:02.859Z,21.57
2022-08-18T03:58:04.514Z,21.59
2022-08-18T04:01:05.959Z,21.60
2022-08-18T04:04:15.055Z,21.62
2022-08-18T04:07:17.519Z,21.46
2022-08-18T04:10:19.814Z,21.44
2022-08-18T04:13:21.312Z,21.50
2022-08-18T04:16:22.731Z,21.58
2022-08-18T04:19:27.224Z,21.64
2022-08-18T04:22:29.380Z,21.60
2022-08-18T04:25:33.203Z,21.48
2022-08-18T04:28:35.287Z,21.39
2022-08-18T04:31:37.764Z,21.36
2022-08-18T04:34:39.338Z,21.33
2022-08-18T04:37:41.951Z,21.37
2022-08-18T04:40:43.475Z,21.33
2022-08-18T04:43:45.164Z,21.39
2022-08-18T04:46:49.524Z,21.34
2022-08-18T04:49:50.933Z,21.26
2022-08-18T04:53:11.093Z,21.33
2022-08-18T04:56:27.881Z,21.37
2022-08-18T04:59:29.293Z,21.23
2022-08-18T05:02:33.069Z,21.06
2022-08-18T05:05:35.244Z,21.06
2022-08-18T05:08:36.644Z,21.08
2022-08-18T05:11:38.926Z,21.11
2022-08-18T05:14:41.374Z,21.18
2022-08-18T05:17:43.222Z,21.12
2022-08-18T05:20:48.362Z,21.01
2022-08-18T05:23:50.656Z,21.04
2022-08-18T05:26:53.486Z,21.05
2022-08-18T05:29:55.373Z,20.93
2022-08-18T05:32:59.010Z,20.91
2022-08-18T05:36:04.131Z,20.92
2022-08-18T05:39:11.560Z,20.98
2022-08-18T05:42:17.637Z,21.12
2022-08-18T05:45:20.323Z,21.16
2022-08-18T05:48:21.792Z,21.22
2022-08-18T05:51:29.260Z,21.28
2022-08-18T05:55:07.668Z,21.22
2022-08-18T05:58:17.948Z,21.28
2022-08-18T06:01:23.881Z,21.27
2022-08-18T06:04:34.367Z,21.25
2022-08-18T06:07:46.893Z,21.22
2022-08-18T06:10:50.654Z,21.25
2022-08-18T06:13:59.436Z,21.11
2022-08-18T06:17:24.838Z,21.16
2022-08-18T06:20:44.436Z,21.12
2022-08-18T06:24:07.522Z,21.04
2022-08-18T06:27:23.042Z,21.26
2022-08-18T06:30:39.602Z,21.27
2022-08-18T06:33:56.201Z,21.21
2022-08-18T06:37:11.045Z,21.02
2022-08-18T06:40:12.495Z,21.16
2022-08-18T06:43:16.972Z,21.17
2022-08-18T06:46:24.084Z,21.15
2022-08-18T06:49:36.201Z,21.25
2022-08-18T06:52:51.403Z,21.37
2022-08-18T06:55:52.959Z,21.40
2022-08-18T06:58:55.473Z,21.45
2022-08-18T07:02:24.670Z,21.44
2022-08-18T07:05:28.990Z,21.52
2022-08-18T07:08:37.017Z,21.59
2022-08-18T07:11:43.162Z,21.55
2022-08-18T07:14:48.412Z,21.45
2022-08-18T07:17:50.256Z,21.28
2022-08-18T07:20:56.234Z,21.21
2022-08-18T07:24:25.774Z,21.40
2022-08-18T07:27:49.749Z,21.61
2022-08-18T07:31:15.628Z,21.74
2022-08-18T07:34:33.306Z,21.52
2022-08-18T07:37:54.933Z,21.44
2022-08-18T07:41:02.960Z,21.56
2022-08-18T07:44:13.808Z,21.60
2022-08-18T07:47:26.327Z,21.73
2022-08-18T07:50:57.412Z,21.85
2022-08-18T07:54:45.479Z,21.82
2022-08-18T07:57:51.947Z,21.81
2022-08-18T08:01:42.057Z,21.80
2022-08-18T08:05:17.022Z,21.98
2022-08-18T08:08:39.979Z,21.98
2022-08-18T08:12:02.364Z,22.04
2022-08-18T08:15:17.606Z,21.92
2022-08-18T08:18:36.790Z,21.90
2022-08-18T08:21:44.981Z,21.82
2022-08-18T08:25:03.208Z,21.79
2022-08-18T08:28:16.354Z,21.84
2022-08-18T08:31:39.754Z,21.71
2022-08-18T08:34:44.225Z,21.67
2022-08-18T08:37:53.297Z,21.61
2022-08-18T08:41:08.143Z,21.50
2022-08-18T08:44:17.762Z,21.66
2022-08-18T08:47:47.694Z,21.82
2022-08-18T08:50:54.428Z,21.84
2022-08-18T08:54:20.234Z,22.00
2022-08-18T08:57:27.798Z,21.97
2022-08-18T09:00:30.796Z,21.97
2022-08-18T09:03:38.233Z,21.89
2022-08-18T09:07:24.602Z,21.62
2022-08-18T09:11:03.621Z,21.68
2022-08-18T09:14:43.978Z,21.77
2022-08-18T09:18:00.607Z,21.65
2022-08-18T09:21:13.289Z,21.53
2022-08-18T09:24:25.764Z,21.46
2022-08-18T09:28:00.184Z,21.51
2022-08-18T09:31:03.089Z,21.84
2022-08-18T09:34:22.622Z,21.51
2022-08-18T09:38:12.764Z,21.52
2022-08-18T09:41:34.147Z,21.70
2022-08-18T09:44:47.553Z,21.50
2022-08-18T09:47:57.079Z,21.65
2022-08-18T09:51:35.276Z,21.77
2022-08-18T09:54:53.564Z,22.00
2022-08-18T09:58:39.762Z,21.88
2022-08-18T10:01:42.085Z,21.78
2022-08-18T10:04:51.171Z,21.78
2022-08-18T10:08:28.794Z,21.85
2022-08-18T10:11:51.009Z,21.88
2022-08-18T10:15:33.891Z,21.77
2022-08-18T10:18:39.599Z,21.92
2022-08-18T10:21:56.400Z,21.94
2022-08-18T10:25:19.822Z,22.04
2022-08-18T10:28:48.716Z,22.19
2022-08-18T10:31:57.628Z,22.22
2022-08-18T10:34:59.963Z,22.22
2022-08-18T10:38:18.659Z,22.20
2022-08-18T10:41:30.799Z,22.15
2022-08-18T10:44:42.548Z,22.22
2022-08-18T10:47:45.146Z,22.28
2022-08-18T10:51:27.494Z,22.34
2022-08-18T10:54:52.016Z,22.43
2022-08-18T10:58:17.636Z,22.39
2022-08-18T11:01:32.809Z,22.54
2022-08-18T11:04:47.321Z,22.62
2022-08-18T11:08:03.809Z,22.62
2022-08-18T11:11:34.525Z,22.73
2022-08-18T11:15:23.092Z,22.63
2022-08-18T11:18:43.030Z,22.47
2022-08-18T11:21:51.338Z,22.48
2022-08-18T11:24:53.443Z,22.61
2022-08-18T11:27:56.241Z,22.63
2022-08-18T11:30:59.326Z,22.71
2022-08-18T11:34:01.654Z,22.85
2022-08-18T11:37:22.593Z,22.81
2022-08-18T11:41:09.456Z,22.87
2022-08-18T11:43:59.758Z,22.86
2022-08-18T11:50:55.762Z,22.83
2022-08-18T11:57:54.453Z,22.97
2022-08-18T12:01:01.517Z,23.13
2022-08-18T12:04:14.022Z,23.21
2022-08-18T12:07:28.452Z,23.37
2022-08-18T12:10:30.045Z,23.42
2022-08-18T12:13:31.778Z,23.59
2022-08-18T12:16:40.532Z,23.56
2022-08-18T12:19:47.983Z,23.79
2022-08-18T12:22:49.894Z,23.88
2022-08-18T12:29:12.854Z,24.15
2022-08-18T12:32:46.768Z,24.24
2022-08-18T12:35:42.251Z,24.59
2022-08-18T12:38:44.894Z,24.91
2022-08-18T12:41:54.168Z,25.04
2022-08-18T12:44:55.582Z,24.97
2022-08-18T12:47:57.140Z,24.91
2022-08-18T12:51:00.892Z,25.30
2022-08-18T12:54:07.097Z,25.58
2022-08-18T12:57:33.238Z,25.60
2022-08-18T13:00:44.066Z,25.69
2022-08-18T13:03:52.746Z,26.04
2022-08-18T13:07:13.165Z,26.41
2022-08-18T13:10:21.849Z,26.76
2022-08-18T13:16:53.902Z,26.90
2022-08-18T13:19:56.525Z,26.86
2022-08-18T13:22:59.567Z,27.00
2022-08-18T13:26:03.030Z,27.00
2022-08-18T13:29:05.198Z,27.09
2022-08-18T13:32:12.066Z,27.02
2022-08-18T13:35:13.827Z,27.09
2022-08-18T13:38:25.878Z,27.32
2022-08-18T13:41:31.549Z,27.48
2022-08-18T13:44:34.065Z,27.55
2022-08-18T13:47:38.276Z,27.23
2022-08-18T13:50:40.273Z,27.32
2022-08-18T13:53:57.408Z,27.29
2022-08-18T13:57:00.983Z,27.34
2022-08-18T14:09:51.518Z,27.25
2022-08-18T14:12:59.398Z,27.00
2022-08-18T14:16:01.064Z,27.07
2022-08-18T14:24:48.660Z,27.42
2022-08-18T14:27:56.419Z,27.61
2022-08-18T14:31:00.765Z,27.73
2022-08-18T14:34:04.302Z,27.58
2022-08-18T14:37:05.898Z,27.96
2022-08-18T14:40:12.380Z,28.09
2022-08-18T14:43:17.147Z,27.90
2022-08-18T14:49:28.687Z,27.43
2022-08-18T14:52:30.923Z,27.45
2022-08-18T14:55:34.141Z,27.39
2022-08-18T14:58:35.692Z,27.69
2022-08-18T15:01:42.875Z,27.57
2022-08-18T15:04:53.006Z,27.44
2022-08-18T15:08:03.397Z,27.47
2022-08-18T15:11:11.821Z,27.52
2022-08-18T15:14:14.118Z,27.63
2022-08-18T15:17:17.250Z,27.64
2022-08-18T15:20:29.722Z,27.35
2022-08-18T15:23:50.136Z,27.49
2022-08-18T15:27:05.440Z,27.34
2022-08-18T15:30:11.327Z,27.30
2022-08-18T15:33:15.662Z,27.45
2022-08-18T15:36:21.474Z,27.54
2022-08-18T15:39:30.519Z,27.28
2022-08-18T15:42:34.287Z,27.24
2022-08-18T15:45:51.023Z,27.35
2022-08-18T15:48:58.153Z,27.42
2022-08-18T15:51:59.812Z,27.38
2022-08-18T15:55:04.718Z,27.12
2022-08-18T15:58:12.412Z,27.06
2022-08-18T16:01:30.433Z,27.21
2022-08-18T16:04:34.935Z,27.13
2022-08-18T16:07:41.143Z,26.99
2022-08-18T16:10:46.827Z,26.95
2022-08-18T16:13:49.310Z,26.82
2022-08-18T16:16:50.783Z,26.78
2022-08-18T16:19:52.205Z,26.85
2022-08-18T16:22:53.969Z,26.87
2022-08-18T16:26:00.772Z,26.80
2022-08-18T16:29:02.284Z,26.80
2022-08-18T16:32:04.811Z,26.80
2022-08-18T16:35:19.645Z,26.68
2022-08-18T16:38:21.799Z,26.65
2022-08-18T16:41:23.280Z,26.72
2022-08-18T16:44:24.858Z,26.67
2022-08-18T16:47:26.921Z,26.61
2022-08-18T16:50:29.623Z,26.38
2022-08-18T16:53:39.834Z,26.39
2022-08-18T16:56:41.960Z,26.29
2022-08-18T17:00:02.025Z,26.43
2022-08-18T17:03:23.887Z,26.46
2022-08-18T17:06:28.220Z,26.32
2022-08-18T17:09:29.746Z,26.25
2022-08-18T17:12:31.339Z,26.21
2022-08-18T17:15:33.158Z,26.24
2022-08-18T17:18:36.033Z,26.10
2022-08-18T17:21:37.890Z,26.06
2022-08-18T17:24:41.169Z,26.05
2022-08-18T17:27:49.407Z,26.07
2022-08-18T17:30:54.421Z,26.05
2022-08-18T17:34:00.932Z,26.02
2022-08-18T17:37:03.826Z,26.05
2022-08-18T17:40:13.246Z,25.96
2022-08-18T17:43:24.880Z,25.91
2022-08-18T17:46:30.081Z,25.91
2022-08-18T17:50:26.416Z,25.91
2022-08-18T17:53:17.461Z,25.88
2022-08-18T17:56:35.392Z,25.79
2022-08-18T17:59:51.982Z,25.80
2022-08-18T18:02:53.704Z,25.78
2022-08-18T18:06:02.998Z,25.77
2022-08-18T18:09:11.132Z,25.75
2022-08-18T18:12:23.361Z,25.71
2022-08-18T18:15:31.915Z,25.66
2022-08-18T18:18:45.023Z,25.67
2022-08-18T18:22:03.340Z,25.67
2022-08-18T18:25:07.505Z,25.61
2022-08-18T18:28:29.265Z,25.57
2022-08-18T18:31:31.411Z,25.49
2022-08-18T18:34:45.177Z,25.41
2022-08-18T18:38:00.132Z,25.35
2022-08-18T18:41:03.652Z,25.16
2022-08-18T18:44:10.508Z,25.08
2022-08-18T18:47:33.604Z,25.06
2022-08-18T18:50:53.032Z,25.00
2022-08-18T18:54:23.533Z,25.01
2022-08-18T18:57:40.267Z,24.87
2022-08-18T19:00:53.635Z,24.88
2022-08-18T19:04:10.055Z,24.79
2022-08-18T19:07:21.265Z,24.73
2022-08-18T19:10:34.932Z,24.74
2022-08-18T19:13:44.926Z,24.71
2022-08-18T19:17:08.504Z,24.65
2022-08-18T19:20:16.930Z,24.68
2022-08-18T19:23:59.509Z,24.65
2022-08-18T19:27:03.790Z,24.61
2022-08-18T19:30:09.447Z,24.56
2022-08-18T19:33:18.413Z,24.50
2022-08-18T19:36:44.017Z,24.44
2022-08-18T19:39:55.656Z,24.45
2022-08-18T19:43:26.553Z,24.43
2022-08-18T19:46:37.878Z,24.41
2022-08-18T19:49:56.435Z,24.37
2022-08-18T19:53:14.433Z,24.34
2022-08-18T19:56:24.649Z,24.33
2022-08-18T19:59:45.765Z,24.28
2022-08-18T20:03:21.283Z,24.35
2022-08-18T20:06:49.825Z,24.37
2022-08-18T20:10:21.106Z,24.34
2022-08-18T20:13:38.394Z,24.37
2022-08-18T20:16:44.921Z,24.30
2022-08-18T20:19:57.328Z,24.26
2022-08-18T20:23:00.165Z,24.21
2022-08-18T20:26:01.846Z,24.15
2022-08-18T20:29:05.076Z,24.11
2022-08-18T20:32:19.162Z,24.11
2022-08-18T20:35:31.609Z,24.08
2022-08-18T20:38:35.507Z,24.06
2022-08-18T20:41:45.137Z,24.09
2022-08-18T20:44:49.583Z,24.06
2022-08-18T20:48:06.956Z,24.08
2022-08-18T20:51:16.189Z,24.05
2022-08-18T20:54:28.198Z,23.97
2022-08-18T20:57:34.853Z,23.97
2022-08-18T21:00:40.405Z,23.88
2022-08-18T21:03:46.054Z,23.87
2022-08-18T21:06:48.358Z,23.85
2022-08-18T21:09:52.766Z,23.97
2022-08-18T21:12:57.730Z,23.96
2022-08-18T21:15:59.730Z,23.85
2022-08-18T21:19:13.761Z,23.91
2022-08-18T21:25:16.932Z,23.98
2022-08-18T21:28:18.596Z,23.73
2022-08-18T21:31:44.230Z,23.68
2022-08-18T21:34:47.157Z,23.67
2022-08-18T21:37:58.016Z,23.68
2022-08-18T21:41:00.919Z,23.43
2022-08-18T21:44:13.535Z,23.37
2022-08-18T21:47:20.802Z,23.40
2022-08-18T21:50:33.921Z,23.40
2022-08-18T21:53:38.187Z,23.39
2022-08-18T21:56:40.106Z,23.38
2022-08-18T22:00:17.052Z,23.46
2022-08-18T22:03:21.553Z,23.57
2022-08-18T22:06:29.010Z,23.62
2022-08-18T22:09:52.338Z,23.65
2022-08-18T22:13:15.014Z,23.62
2022-08-18T22:16:27.757Z,23.46
2022-08-18T22:19:29.214Z,23.35
2022-08-18T22:22:49.192Z,23.34
2022-08-18T22:25:51.229Z,23.32
2022-08-18T22:29:13.411Z,23.28
2022-08-18T22:32:15.477Z,23.22
2022-08-18T22:35:17.527Z,23.21
2022-08-18T22:38:19.081Z,23.27
2022-08-18T22:41:21.849Z,23.30
2022-08-18T22:44:24.072Z,23.25
2022-08-18T22:47:25.861Z,23.19
2022-08-18T22:50:27.283Z,23.24
2022-08-18T22:53:29.389Z,23.16
2022-08-18T22:56:34.346Z,23.04
2022-08-18T22:59:36.832Z,23.07
2022-08-18T23:02:43.962Z,23.11
2022-08-18T23:05:45.466Z,23.03
2022-08-18T23:08:54.999Z,23.05
2022-08-18T23:12:05.131Z,23.16
2022-08-18T23:15:11.129Z,23.17
2022-08-18T23:18:13.919Z,23.22
2022-08-18T23:21:34.734Z,23.20
2022-08-18T23:24:37.561Z,23.11
2022-08-18T23:27:39.403Z,22.92
2022-08-18T23:30:41.121Z,22.77
2022-08-18T23:33:42.859Z,22.80
2022-08-18T23:36:46.401Z,22.80
2022-08-18T23:39:48.226Z,22.78
2022-08-18T23:42:51.529Z,22.76
2022-08-18T23:45:53.138Z,22.77
2022-08-18T23:48:57.232Z,22.75
2022-08-18T23:51:59.945Z,22.76
2022-08-18T23:55:06.561Z,22.89
2022-08-18T23:58:09.514Z,22.92
